sensor_id;sensor_type;location;lat;lon;timestamp;P1;durP1;ratioP1;P2;durP2;ratioP2
4971;SDS011;2501;51.214;6.768;2022-11-14T00:01:21;18.67;;;11.05;;
4971;SDS011;2501;51.214;6.768;2022-11-14T00:03:49;17.27;;;10.93;;
4971;SDS011;2501;51.214;6.768;2022-11-14T00:06:18;16.45;;;10.10;;
4971;SDS011;2501;51.214;6.768;2022-11-14T00:08:47;15.70;;;10.43;;
4971;SDS011;2501;51.214;6.768;2022-11-14T00:11:15;18.55;;;11.02;;
4971;SDS011;2501;51.214;6.768;2022-11-14T00:13:43;16.15;;;10.10;;
4971;SDS011;2501;51.214;6.768;2022-11-14T00:16:14;16.52;;;10.38;;
4971;SDS011;2501;51.214;6.768;2022-11-14T00:18:43;18.52;;;11.07;;
4971;SDS011;2501;51.214;6.768;2022-11-14T00:21:11;14.55;;;10.15;;
4971;SDS011;2501;51.214;6.768;2022-11-14T00:23:39;16.37;;;11.53;;
4971;SDS011;2501;51.214;6.768;2022-11-14T00:26:08;16.38;;;10.80;;
4971;SDS011;2501;51.214;6.768;2022-11-14T00:28:36;19.83;;;11.10;;
4971;SDS011;2501;51.214;6.768;2022-11-14T00:31:05;17.33;;;11.23;;
4971;SDS011;2501;51.214;6.768;2022-11-14T00:33:36;14.93;;;9.50;;
4971;SDS011;2501;51.214;6.768;2022-11-14T00:36:05;16.50;;;10.40;;
4971;SDS011;2501;51.214;6.768;2022-11-14T00:38:33;17.20;;;10.20;;
4971;SDS011;2501;51.214;6.768;2022-11-14T00:41:02;17.77;;;10.68;;
4971;SDS011;2501;51.214;6.768;2022-11-14T00:43:30;15.15;;;10.48;;
4971;SDS011;2501;51.214;6.768;2022-11-14T00:45:58;15.18;;;10.25;;
4971;SDS011;2501;51.214;6.768;2022-11-14T00:48:27;16.90;;;10.15;;
4971;SDS011;2501;51.214;6.768;2022-11-14T00:50:58;17.70;;;10.83;;
4971;SDS011;2501;51.214;6.768;2022-11-14T00:53:26;15.70;;;11.50;;
4971;SDS011;2501;51.214;6.768;2022-11-14T00:55:55;18.20;;;10.37;;
4971;SDS011;2501;51.214;6.768;2022-11-14T00:58:23;19.17;;;11.68;;
4971;SDS011;2501;51.214;6.768;2022-11-14T01:00:51;15.95;;;10.13;;
4971;SDS011;2501;51.214;6.768;2022-11-14T01:03:20;17.80;;;11.23;;
4971;SDS011;2501;51.214;6.768;2022-11-14T01:05:49;20.42;;;11.05;;
4971;SDS011;2501;51.214;6.768;2022-11-14T01:08:21;19.02;;;11.48;;
4971;SDS011;2501;51.214;6.768;2022-11-14T01:10:49;14.23;;;10.63;;
4971;SDS011;2501;51.214;6.768;2022-11-14T01:13:18;14.57;;;10.23;;
4971;SDS011;2501;51.214;6.768;2022-11-14T01:15:47;18.23;;;11.45;;
4971;SDS011;2501;51.214;6.768;2022-11-14T01:18:17;18.98;;;11.40;;
4971;SDS011;2501;51.214;6.768;2022-11-14T01:20:47;15.88;;;10.73;;
4971;SDS011;2501;51.214;6.768;2022-11-14T01:23:16;18.48;;;10.50;;
4971;SDS011;2501;51.214;6.768;2022-11-14T01:25:47;16.20;;;10.48;;
4971;SDS011;2501;51.214;6.768;2022-11-14T01:28:18;14.27;;;9.70;;
4971;SDS011;2501;51.214;6.768;2022-11-14T01:30:47;13.55;;;9.50;;
4971;SDS011;2501;51.214;6.768;2022-11-14T01:33:15;18.85;;;10.80;;
4971;SDS011;2501;51.214;6.768;2022-11-14T01:35:44;14.82;;;9.50;;
4971;SDS011;2501;51.214;6.768;2022-11-14T01:38:13;16.10;;;10.20;;
4971;SDS011;2501;51.214;6.768;2022-11-14T01:40:42;13.57;;;9.20;;
4971;SDS011;2501;51.214;6.768;2022-11-14T01:43:24;17.05;;;10.13;;
4971;SDS011;2501;51.214;6.768;2022-11-14T01:45:55;14.32;;;8.90;;
4971;SDS011;2501;51.214;6.768;2022-11-14T01:48:27;12.13;;;9.00;;
4971;SDS011;2501;51.214;6.768;2022-11-14T01:51:00;15.05;;;9.55;;
4971;SDS011;2501;51.214;6.768;2022-11-14T01:53:32;17.17;;;10.05;;
4971;SDS011;2501;51.214;6.768;2022-11-14T01:56:02;15.90;;;10.07;;
4971;SDS011;2501;51.214;6.768;2022-11-14T01:58:36;17.27;;;9.32;;
4971;SDS011;2501;51.214;6.768;2022-11-14T02:01:09;14.82;;;9.70;;
4971;SDS011;2501;51.214;6.768;2022-11-14T02:03:38;16.80;;;9.67;;
4971;SDS011;2501;51.214;6.768;2022-11-14T02:06:09;15.40;;;10.00;;
4971;SDS011;2501;51.214;6.768;2022-11-14T02:08:41;15.45;;;10.13;;
4971;SDS011;2501;51.214;6.768;2022-11-14T02:11:11;16.10;;;10.10;;
4971;SDS011;2501;51.214;6.768;2022-11-14T02:13:42;15.90;;;9.75;;
4971;SDS011;2501;51.214;6.768;2022-11-14T02:16:10;15.98;;;9.82;;
4971;SDS011;2501;51.214;6.768;2022-11-14T02:18:39;14.35;;;8.63;;
4971;SDS011;2501;51.214;6.768;2022-11-14T02:21:10;12.93;;;9.27;;
4971;SDS011;2501;51.214;6.768;2022-11-14T02:23:38;12.05;;;8.30;;
4971;SDS011;2501;51.214;6.768;2022-11-14T02:26:06;13.93;;;8.85;;
4971;SDS011;2501;51.214;6.768;2022-11-14T02:28:35;11.82;;;8.05;;
4971;SDS011;2501;51.214;6.768;2022-11-14T02:31:03;11.50;;;8.00;;
4971;SDS011;2501;51.214;6.768;2022-11-14T02:33:32;14.60;;;8.10;;
4971;SDS011;2501;51.214;6.768;2022-11-14T02:36:00;10.73;;;7.85;;
4971;SDS011;2501;51.214;6.768;2022-11-14T02:38:31;10.88;;;8.02;;
4971;SDS011;2501;51.214;6.768;2022-11-14T02:41:00;13.23;;;8.25;;
4971;SDS011;2501;51.214;6.768;2022-11-14T02:43:29;10.63;;;8.10;;
4971;SDS011;2501;51.214;6.768;2022-11-14T02:45:57;10.40;;;7.50;;
4971;SDS011;2501;51.214;6.768;2022-11-14T02:48:26;10.77;;;8.33;;
4971;SDS011;2501;51.214;6.768;2022-11-14T02:50:54;11.25;;;7.82;;
4971;SDS011;2501;51.214;6.768;2022-11-14T02:53:22;12.45;;;7.85;;
4971;SDS011;2501;51.214;6.768;2022-11-14T02:55:53;11.38;;;7.90;;
4971;SDS011;2501;51.214;6.768;2022-11-14T02:58:22;10.93;;;7.22;;
4971;SDS011;2501;51.214;6.768;2022-11-14T03:00:50;9.52;;;7.63;;
4971;SDS011;2501;51.214;6.768;2022-11-14T03:03:18;12.88;;;8.70;;
4971;SDS011;2501;51.214;6.768;2022-11-14T03:05:47;13.73;;;7.50;;
4971;SDS011;2501;51.214;6.768;2022-11-14T03:08:17;14.80;;;7.50;;
4971;SDS011;2501;51.214;6.768;2022-11-14T03:10:46;12.85;;;8.82;;
4971;SDS011;2501;51.214;6.768;2022-11-14T03:13:17;12.13;;;8.60;;
4971;SDS011;2501;51.214;6.768;2022-11-14T03:15:46;15.25;;;8.23;;
4971;SDS011;2501;51.214;6.768;2022-11-14T03:18:14;16.42;;;7.82;;
4971;SDS011;2501;51.214;6.768;2022-11-14T03:20:42;12.93;;;7.30;;
4971;SDS011;2501;51.214;6.768;2022-11-14T03:23:11;10.82;;;7.13;;
4971;SDS011;2501;51.214;6.768;2022-11-14T03:25:39;11.15;;;7.60;;
4971;SDS011;2501;51.214;6.768;2022-11-14T03:28:08;11.70;;;7.30;;
4971;SDS011;2501;51.214;6.768;2022-11-14T03:30:39;10.98;;;7.35;;
4971;SDS011;2501;51.214;6.768;2022-11-14T03:33:07;13.30;;;7.40;;
4971;SDS011;2501;51.214;6.768;2022-11-14T03:35:35;15.05;;;7.30;;
4971;SDS011;2501;51.214;6.768;2022-11-14T03:38:08;10.75;;;7.30;;
4971;SDS011;2501;51.214;6.768;2022-11-14T03:40:38;8.20;;;7.17;;
4971;SDS011;2501;51.214;6.768;2022-11-14T03:43:07;12.02;;;7.50;;
4971;SDS011;2501;51.214;6.768;2022-11-14T03:45:35;14.33;;;7.50;;
4971;SDS011;2501;51.214;6.768;2022-11-14T03:48:06;12.48;;;7.43;;
4971;SDS011;2501;51.214;6.768;2022-11-14T03:50:35;9.75;;;7.15;;
4971;SDS011;2501;51.214;6.768;2022-11-14T03:53:03;8.80;;;6.60;;
4971;SDS011;2501;51.214;6.768;2022-11-14T03:55:32;10.13;;;7.25;;
4971;SDS011;2501;51.214;6.768;2022-11-14T03:58:00;14.95;;;7.43;;
4971;SDS011;2501;51.214;6.768;2022-11-14T04:00:29;9.27;;;6.50;;
4971;SDS011;2501;51.214;6.768;2022-11-14T04:02:57;10.63;;;7.40;;
4971;SDS011;2501;51.214;6.768;2022-11-14T04:05:28;9.48;;;6.75;;
4971;SDS011;2501;51.214;6.768;2022-11-14T04:07:57;9.30;;;7.53;;
4971;SDS011;2501;51.214;6.768;2022-11-14T04:10:25;10.93;;;6.82;;
4971;SDS011;2501;51.214;6.768;2022-11-14T04:12:54;9.65;;;6.30;;
4971;SDS011;2501;51.214;6.768;2022-11-14T04:15:22;10.60;;;6.63;;
4971;SDS011;2501;51.214;6.768;2022-11-14T04:17:50;9.98;;;7.05;;
4971;SDS011;2501;51.214;6.768;2022-11-14T04:20:19;10.50;;;7.10;;
4971;SDS011;2501;51.214;6.768;2022-11-14T04:22:50;8.40;;;6.90;;
4971;SDS011;2501;51.214;6.768;2022-11-14T04:25:18;9.13;;;6.80;;
4971;SDS011;2501;51.214;6.768;2022-11-14T04:27:46;9.93;;;6.82;;
4971;SDS011;2501;51.214;6.768;2022-11-14T04:30:15;8.23;;;6.93;;
4971;SDS011;2501;51.214;6.768;2022-11-14T04:32:44;9.60;;;6.88;;
4971;SDS011;2501;51.214;6.768;2022-11-14T04:35:13;7.68;;;6.20;;
4971;SDS011;2501;51.214;6.768;2022-11-14T04:37:42;8.68;;;6.57;;
4971;SDS011;2501;51.214;6.768;2022-11-14T04:40:13;7.88;;;6.10;;
4971;SDS011;2501;51.214;6.768;2022-11-14T04:42:42;8.95;;;6.80;;
4971;SDS011;2501;51.214;6.768;2022-11-14T04:45:10;9.80;;;6.88;;
4971;SDS011;2501;51.214;6.768;2022-11-14T04:47:40;9.10;;;6.22;;
4971;SDS011;2501;51.214;6.768;2022-11-14T04:50:09;11.20;;;6.60;;
4971;SDS011;2501;51.214;6.768;2022-11-14T04:52:37;9.73;;;6.30;;
4971;SDS011;2501;51.214;6.768;2022-11-14T04:55:06;8.50;;;5.97;;
4971;SDS011;2501;51.214;6.768;2022-11-14T04:57:37;12.20;;;6.35;;
4971;SDS011;2501;51.214;6.768;2022-11-14T05:00:07;8.07;;;5.80;;
4971;SDS011;2501;51.214;6.768;2022-11-14T05:02:36;10.20;;;6.00;;
4971;SDS011;2501;51.214;6.768;2022-11-14T05:05:05;8.18;;;5.43;;
4971;SDS011;2501;51.214;6.768;2022-11-14T05:07:34;9.32;;;6.43;;
4971;SDS011;2501;51.214;6.768;2022-11-14T05:10:02;8.38;;;6.13;;
4971;SDS011;2501;51.214;6.768;2022-11-14T05:12:31;12.75;;;6.68;;
4971;SDS011;2501;51.214;6.768;2022-11-14T05:15:02;11.05;;;6.03;;
4971;SDS011;2501;51.214;6.768;2022-11-14T05:17:31;13.10;;;6.90;;
4971;SDS011;2501;51.214;6.768;2022-11-14T05:19:59;6.63;;;5.63;;
4971;SDS011;2501;51.214;6.768;2022-11-14T05:22:28;8.50;;;6.82;;
4971;SDS011;2501;51.214;6.768;2022-11-14T05:24:56;9.82;;;6.05;;
4971;SDS011;2501;51.214;6.768;2022-11-14T05:27:24;7.03;;;5.63;;
4971;SDS011;2501;51.214;6.768;2022-11-14T05:29:53;12.60;;;5.43;;
4971;SDS011;2501;51.214;6.768;2022-11-14T05:32:24;6.95;;;5.90;;
4971;SDS011;2501;51.214;6.768;2022-11-14T05:34:53;7.20;;;6.38;;
4971;SDS011;2501;51.214;6.768;2022-11-14T05:37:21;6.72;;;5.80;;
4971;SDS011;2501;51.214;6.768;2022-11-14T05:39:49;10.00;;;6.15;;
4971;SDS011;2501;51.214;6.768;2022-11-14T05:42:18;9.83;;;6.80;;
4971;SDS011;2501;51.214;6.768;2022-11-14T05:44:46;7.18;;;6.03;;
4971;SDS011;2501;51.214;6.768;2022-11-14T05:47:14;10.20;;;5.53;;
4971;SDS011;2501;51.214;6.768;2022-11-14T05:49:45;6.90;;;5.80;;
4971;SDS011;2501;51.214;6.768;2022-11-14T05:52:14;7.93;;;5.93;;
4971;SDS011;2501;51.214;6.768;2022-11-14T05:54:42;8.80;;;6.15;;
4971;SDS011;2501;51.214;6.768;2022-11-14T05:57:11;10.40;;;7.17;;
4971;SDS011;2501;51.214;6.768;2022-11-14T05:59:39;9.10;;;5.80;;
4971;SDS011;2501;51.214;6.768;2022-11-14T06:02:10;7.90;;;5.63;;
4971;SDS011;2501;51.214;6.768;2022-11-14T06:04:39;7.05;;;5.80;;
4971;SDS011;2501;51.214;6.768;2022-11-14T06:07:10;9.50;;;6.70;;
4971;SDS011;2501;51.214;6.768;2022-11-14T06:09:39;14.10;;;7.87;;
4971;SDS011;2501;51.214;6.768;2022-11-14T06:12:07;14.15;;;6.60;;
4971;SDS011;2501;51.214;6.768;2022-11-14T06:14:35;9.65;;;6.88;;
4971;SDS011;2501;51.214;6.768;2022-11-14T06:17:04;8.73;;;6.57;;
4971;SDS011;2501;51.214;6.768;2022-11-14T06:19:32;13.00;;;6.90;;
4971;SDS011;2501;51.214;6.768;2022-11-14T06:22:01;11.60;;;6.57;;
4971;SDS011;2501;51.214;6.768;2022-11-14T06:24:32;10.63;;;6.93;;
4971;SDS011;2501;51.214;6.768;2022-11-14T06:27:00;9.77;;;6.97;;
4971;SDS011;2501;51.214;6.768;2022-11-14T06:29:29;10.60;;;6.70;;
4971;SDS011;2501;51.214;6.768;2022-11-14T06:31:57;7.93;;;6.43;;
4971;SDS011;2501;51.214;6.768;2022-11-14T06:34:25;10.55;;;6.78;;
4971;SDS011;2501;51.214;6.768;2022-11-14T06:36:54;9.52;;;6.45;;
4971;SDS011;2501;51.214;6.768;2022-11-14T06:39:22;12.35;;;7.00;;
4971;SDS011;2501;51.214;6.768;2022-11-14T06:41:53;11.20;;;6.30;;
4971;SDS011;2501;51.214;6.768;2022-11-14T06:44:22;10.27;;;6.70;;
4971;SDS011;2501;51.214;6.768;2022-11-14T06:46:50;9.30;;;6.73;;
4971;SDS011;2501;51.214;6.768;2022-11-14T06:49:18;9.77;;;7.60;;
4971;SDS011;2501;51.214;6.768;2022-11-14T06:51:48;10.48;;;7.15;;
4971;SDS011;2501;51.214;6.768;2022-11-14T06:54:17;10.68;;;7.57;;
4971;SDS011;2501;51.214;6.768;2022-11-14T06:56:45;10.52;;;6.93;;
4971;SDS011;2501;51.214;6.768;2022-11-14T06:59:16;11.25;;;7.05;;
4971;SDS011;2501;51.214;6.768;2022-11-14T07:01:45;8.52;;;6.85;;
4971;SDS011;2501;51.214;6.768;2022-11-14T07:04:13;10.15;;;6.95;;
4971;SDS011;2501;51.214;6.768;2022-11-14T07:06:42;9.88;;;6.93;;
4971;SDS011;2501;51.214;6.768;2022-11-14T07:09:10;11.57;;;7.28;;
4971;SDS011;2501;51.214;6.768;2022-11-14T07:11:38;12.27;;;8.05;;
4971;SDS011;2501;51.214;6.768;2022-11-14T07:14:09;11.23;;;7.30;;
4971;SDS011;2501;51.214;6.768;2022-11-14T07:16:40;9.85;;;7.50;;
4971;SDS011;2501;51.214;6.768;2022-11-14T07:19:09;13.20;;;8.05;;
4971;SDS011;2501;51.214;6.768;2022-11-14T07:21:37;10.98;;;7.38;;
4971;SDS011;2501;51.214;6.768;2022-11-14T07:24:06;9.23;;;7.15;;
4971;SDS011;2501;51.214;6.768;2022-11-14T07:26:35;8.45;;;7.28;;
4971;SDS011;2501;51.214;6.768;2022-11-14T07:29:03;11.00;;;8.00;;
4971;SDS011;2501;51.214;6.768;2022-11-14T07:31:32;17.17;;;8.68;;
4971;SDS011;2501;51.214;6.768;2022-11-14T07:34:03;12.20;;;7.53;;
4971;SDS011;2501;51.214;6.768;2022-11-14T07:36:31;10.80;;;8.05;;
4971;SDS011;2501;51.214;6.768;2022-11-14T07:39:00;11.43;;;8.52;;
4971;SDS011;2501;51.214;6.768;2022-11-14T07:41:28;8.73;;;7.50;;
4971;SDS011;2501;51.214;6.768;2022-11-14T07:43:57;11.55;;;7.88;;
4971;SDS011;2501;51.214;6.768;2022-11-14T07:46:25;10.47;;;8.53;;
4971;SDS011;2501;51.214;6.768;2022-11-14T07:48:54;16.13;;;9.60;;
4971;SDS011;2501;51.214;6.768;2022-11-14T07:51:25;18.23;;;10.52;;
4971;SDS011;2501;51.214;6.768;2022-11-14T07:53:53;18.27;;;11.57;;
4971;SDS011;2501;51.214;6.768;2022-11-14T07:56:22;18.10;;;10.18;;
4971;SDS011;2501;51.214;6.768;2022-11-14T07:58:50;16.33;;;12.07;;
4971;SDS011;2501;51.214;6.768;2022-11-14T08:01:19;18.13;;;11.55;;
4971;SDS011;2501;51.214;6.768;2022-11-14T08:03:47;24.60;;;13.95;;
4971;SDS011;2501;51.214;6.768;2022-11-14T08:06:16;21.67;;;12.27;;
4971;SDS011;2501;51.214;6.768;2022-11-14T08:08:47;20.90;;;12.02;;
4971;SDS011;2501;51.214;6.768;2022-11-14T08:11:15;21.75;;;11.90;;
4971;SDS011;2501;51.214;6.768;2022-11-14T08:14:04;20.42;;;12.77;;
4971;SDS011;2501;51.214;6.768;2022-11-14T08:16:33;20.70;;;12.57;;
4971;SDS011;2501;51.214;6.768;2022-11-14T08:19:02;21.50;;;13.13;;
4971;SDS011;2501;51.214;6.768;2022-11-14T08:21:30;19.95;;;13.02;;
4971;SDS011;2501;51.214;6.768;2022-11-14T08:24:01;21.13;;;12.35;;
4971;SDS011;2501;51.214;6.768;2022-11-14T08:26:30;23.05;;;13.00;;
4971;SDS011;2501;51.214;6.768;2022-11-14T08:28:58;22.88;;;13.95;;
4971;SDS011;2501;51.214;6.768;2022-11-14T08:31:26;26.58;;;13.60;;
4971;SDS011;2501;51.214;6.768;2022-11-14T08:33:55;22.35;;;13.35;;
4971;SDS011;2501;51.214;6.768;2022-11-14T08:36:23;26.50;;;15.35;;
4971;SDS011;2501;51.214;6.768;2022-11-14T08:38:52;23.48;;;14.18;;
4971;SDS011;2501;51.214;6.768;2022-11-14T08:41:23;22.75;;;13.05;;
4971;SDS011;2501;51.214;6.768;2022-11-14T08:43:51;21.98;;;13.35;;
4971;SDS011;2501;51.214;6.768;2022-11-14T08:46:20;23.13;;;13.70;;
4971;SDS011;2501;51.214;6.768;2022-11-14T08:48:49;20.98;;;13.48;;
4971;SDS011;2501;51.214;6.768;2022-11-14T08:51:17;24.50;;;14.77;;
4971;SDS011;2501;51.214;6.768;2022-11-14T08:53:46;23.70;;;13.25;;
4971;SDS011;2501;51.214;6.768;2022-11-14T08:56:16;23.77;;;14.70;;
4971;SDS011;2501;51.214;6.768;2022-11-14T08:58:47;21.75;;;14.00;;
4971;SDS011;2501;51.214;6.768;2022-11-14T09:01:16;23.63;;;14.10;;
4971;SDS011;2501;51.214;6.768;2022-11-14T09:03:44;24.25;;;14.10;;
4971;SDS011;2501;51.214;6.768;2022-11-14T09:06:12;26.00;;;16.25;;
4971;SDS011;2501;51.214;6.768;2022-11-14T09:08:41;26.73;;;14.63;;
4971;SDS011;2501;51.214;6.768;2022-11-14T09:11:09;25.20;;;15.18;;
4971;SDS011;2501;51.214;6.768;2022-11-14T09:13:38;24.50;;;15.13;;
4971;SDS011;2501;51.214;6.768;2022-11-14T09:16:09;23.65;;;14.90;;
4971;SDS011;2501;51.214;6.768;2022-11-14T09:18:37;28.38;;;15.73;;
4971;SDS011;2501;51.214;6.768;2022-11-14T09:21:06;25.80;;;15.33;;
4971;SDS011;2501;51.214;6.768;2022-11-14T09:23:35;28.05;;;15.50;;
4971;SDS011;2501;51.214;6.768;2022-11-14T09:26:04;27.10;;;17.05;;
4971;SDS011;2501;51.214;6.768;2022-11-14T09:28:33;28.83;;;15.87;;
4971;SDS011;2501;51.214;6.768;2022-11-14T09:31:03;28.30;;;16.42;;
4971;SDS011;2501;51.214;6.768;2022-11-14T09:33:36;32.03;;;18.30;;
4971;SDS011;2501;51.214;6.768;2022-11-14T09:36:06;31.38;;;17.73;;
4971;SDS011;2501;51.214;6.768;2022-11-14T09:38:36;31.02;;;18.40;;
4971;SDS011;2501;51.214;6.768;2022-11-14T09:41:09;31.50;;;18.50;;
4971;SDS011;2501;51.214;6.768;2022-11-14T09:44:03;34.50;;;19.40;;
4971;SDS011;2501;51.214;6.768;2022-11-14T09:46:42;41.75;;;21.23;;
4971;SDS011;2501;51.214;6.768;2022-11-14T09:49:22;41.58;;;19.38;;
4971;SDS011;2501;51.214;6.768;2022-11-14T09:51:57;37.53;;;19.17;;
4971;SDS011;2501;51.214;6.768;2022-11-14T09:54:32;34.95;;;19.75;;
4971;SDS011;2501;51.214;6.768;2022-11-14T09:57:12;36.55;;;19.15;;
4971;SDS011;2501;51.214;6.768;2022-11-14T09:59:46;35.78;;;18.95;;
4971;SDS011;2501;51.214;6.768;2022-11-14T10:02:19;38.97;;;19.35;;
4971;SDS011;2501;51.214;6.768;2022-11-14T10:05:08;35.53;;;18.38;;
4971;SDS011;2501;51.214;6.768;2022-11-14T10:08:04;35.60;;;18.30;;
4971;SDS011;2501;51.214;6.768;2022-11-14T10:10:52;33.08;;;17.17;;
4971;SDS011;2501;51.214;6.768;2022-11-14T10:13:29;33.20;;;18.30;;
4971;SDS011;2501;51.214;6.768;2022-11-14T10:16:22;35.53;;;17.80;;
4971;SDS011;2501;51.214;6.768;2022-11-14T10:19:08;34.17;;;18.40;;
4971;SDS011;2501;51.214;6.768;2022-11-14T10:21:49;32.53;;;16.63;;
4971;SDS011;2501;51.214;6.768;2022-11-14T10:24:38;31.83;;;17.00;;
4971;SDS011;2501;51.214;6.768;2022-11-14T10:27:17;30.58;;;15.73;;
4971;SDS011;2501;51.214;6.768;2022-11-14T10:29:53;26.95;;;14.70;;
4971;SDS011;2501;51.214;6.768;2022-11-14T10:32:50;33.78;;;16.13;;
4971;SDS011;2501;51.214;6.768;2022-11-14T10:35:29;28.23;;;15.20;;
4971;SDS011;2501;51.214;6.768;2022-11-14T10:38:06;26.63;;;14.27;;
4971;SDS011;2501;51.214;6.768;2022-11-14T10:40:40;27.92;;;14.73;;
4971;SDS011;2501;51.214;6.768;2022-11-14T10:43:15;24.63;;;15.10;;
4971;SDS011;2501;51.214;6.768;2022-11-14T10:45:50;28.48;;;15.05;;
4971;SDS011;2501;51.214;6.768;2022-11-14T10:48:24;29.75;;;15.90;;
4971;SDS011;2501;51.214;6.768;2022-11-14T10:50:57;23.80;;;14.88;;
4971;SDS011;2501;51.214;6.768;2022-11-14T10:53:35;29.42;;;15.70;;
4971;SDS011;2501;51.214;6.768;2022-11-14T10:56:11;31.23;;;17.53;;
4971;SDS011;2501;51.214;6.768;2022-11-14T10:58:39;25.88;;;15.32;;
4971;SDS011;2501;51.214;6.768;2022-11-14T11:04:18;28.55;;;15.63;;
4971;SDS011;2501;51.214;6.768;2022-11-14T11:06:49;38.55;;;21.98;;
4971;SDS011;2501;51.214;6.768;2022-11-14T11:09:22;30.02;;;15.23;;
4971;SDS011;2501;51.214;6.768;2022-11-14T11:12:05;29.15;;;16.63;;
4971;SDS011;2501;51.214;6.768;2022-11-14T11:14:35;26.15;;;15.50;;
4971;SDS011;2501;51.214;6.768;2022-11-14T11:17:07;26.65;;;15.02;;
4971;SDS011;2501;51.214;6.768;2022-11-14T11:19:44;35.08;;;16.48;;
4971;SDS011;2501;51.214;6.768;2022-11-14T11:22:24;26.02;;;15.57;;
4971;SDS011;2501;51.214;6.768;2022-11-14T11:24:59;25.00;;;15.70;;
4971;SDS011;2501;51.214;6.768;2022-11-14T11:27:29;32.50;;;16.98;;
4971;SDS011;2501;51.214;6.768;2022-11-14T11:30:01;23.95;;;14.95;;
4971;SDS011;2501;51.214;6.768;2022-11-14T11:32:32;30.60;;;16.23;;
4971;SDS011;2501;51.214;6.768;2022-11-14T11:35:02;28.05;;;14.32;;
4971;SDS011;2501;51.214;6.768;2022-11-14T11:37:39;28.23;;;14.32;;
4971;SDS011;2501;51.214;6.768;2022-11-14T11:40:16;28.73;;;16.65;;
4971;SDS011;2501;51.214;6.768;2022-11-14T11:42:48;29.13;;;16.48;;
4971;SDS011;2501;51.214;6.768;2022-11-14T11:45:24;26.85;;;15.70;;
4971;SDS011;2501;51.214;6.768;2022-11-14T11:47:54;26.05;;;16.50;;
4971;SDS011;2501;51.214;6.768;2022-11-14T11:50:25;28.25;;;17.00;;
4971;SDS011;2501;51.214;6.768;2022-11-14T11:52:57;29.75;;;17.42;;
4971;SDS011;2501;51.214;6.768;2022-11-14T11:55:38;31.35;;;15.93;;
4971;SDS011;2501;51.214;6.768;2022-11-14T11:58:11;27.00;;;15.60;;
4971;SDS011;2501;51.214;6.768;2022-11-14T12:00:49;27.88;;;17.38;;
4971;SDS011;2501;51.214;6.768;2022-11-14T12:03:20;34.95;;;17.73;;
4971;SDS011;2501;51.214;6.768;2022-11-14T12:05:52;30.60;;;16.50;;
4971;SDS011;2501;51.214;6.768;2022-11-14T12:08:30;28.88;;;15.50;;
4971;SDS011;2501;51.214;6.768;2022-11-14T12:11:08;31.20;;;17.05;;
4971;SDS011;2501;51.214;6.768;2022-11-14T12:13:47;28.08;;;16.35;;
4971;SDS011;2501;51.214;6.768;2022-11-14T12:16:45;28.45;;;16.20;;
4971;SDS011;2501;51.214;6.768;2022-11-14T12:19:36;28.60;;;16.75;;
4971;SDS011;2501;51.214;6.768;2022-11-14T12:22:21;30.15;;;17.98;;
4971;SDS011;2501;51.214;6.768;2022-11-14T12:25:06;29.05;;;16.38;;
4971;SDS011;2501;51.214;6.768;2022-11-14T12:27:57;26.83;;;15.32;;
4971;SDS011;2501;51.214;6.768;2022-11-14T12:30:36;28.00;;;16.00;;
4971;SDS011;2501;51.214;6.768;2022-11-14T12:33:08;30.88;;;17.10;;
4971;SDS011;2501;51.214;6.768;2022-11-14T12:35:46;28.40;;;16.65;;
4971;SDS011;2501;51.214;6.768;2022-11-14T12:38:16;30.42;;;17.67;;
4971;SDS011;2501;51.214;6.768;2022-11-14T12:40:49;29.50;;;16.10;;
4971;SDS011;2501;51.214;6.768;2022-11-14T12:43:30;32.17;;;16.95;;
4971;SDS011;2501;51.214;6.768;2022-11-14T12:46:03;29.33;;;17.17;;
4971;SDS011;2501;51.214;6.768;2022-11-14T12:48:35;29.77;;;16.93;;
4971;SDS011;2501;51.214;6.768;2022-11-14T12:51:08;30.80;;;17.00;;
4971;SDS011;2501;51.214;6.768;2022-11-14T12:54:20;34.28;;;16.92;;
4971;SDS011;2501;51.214;6.768;2022-11-14T12:57:16;29.10;;;17.00;;
4971;SDS011;2501;51.214;6.768;2022-11-14T13:00:03;34.40;;;18.10;;
4971;SDS011;2501;51.214;6.768;2022-11-14T13:05:51;34.40;;;18.42;;
4971;SDS011;2501;51.214;6.768;2022-11-14T13:08:35;31.90;;;16.50;;
4971;SDS011;2501;51.214;6.768;2022-11-14T13:14:19;31.67;;;16.27;;
4971;SDS011;2501;51.214;6.768;2022-11-14T13:17:08;30.98;;;17.05;;
4971;SDS011;2501;51.214;6.768;2022-11-14T13:19:50;37.90;;;18.27;;
4971;SDS011;2501;51.214;6.768;2022-11-14T13:22:35;29.42;;;16.90;;
4971;SDS011;2501;51.214;6.768;2022-11-14T13:25:19;33.97;;;16.42;;
4971;SDS011;2501;51.214;6.768;2022-11-14T13:27:51;36.10;;;19.58;;
4971;SDS011;2501;51.214;6.768;2022-11-14T13:33:41;32.03;;;17.13;;
4971;SDS011;2501;51.214;6.768;2022-11-14T13:36:10;36.17;;;17.35;;
4971;SDS011;2501;51.214;6.768;2022-11-14T13:39:12;36.83;;;18.73;;
4971;SDS011;2501;51.214;6.768;2022-11-14T13:47:49;32.73;;;17.73;;
4971;SDS011;2501;51.214;6.768;2022-11-14T13:50:37;34.70;;;18.63;;
4971;SDS011;2501;51.214;6.768;2022-11-14T13:53:10;32.08;;;18.33;;
4971;SDS011;2501;51.214;6.768;2022-11-14T13:55:46;35.85;;;18.45;;
4971;SDS011;2501;51.214;6.768;2022-11-14T13:58:26;30.02;;;18.02;;
4971;SDS011;2501;51.214;6.768;2022-11-14T14:01:07;33.55;;;17.73;;
4971;SDS011;2501;51.214;6.768;2022-11-14T14:04:03;31.60;;;17.27;;
4971;SDS011;2501;51.214;6.768;2022-11-14T14:06:47;34.17;;;19.77;;
4971;SDS011;2501;51.214;6.768;2022-11-14T14:09:26;41.67;;;22.07;;
4971;SDS011;2501;51.214;6.768;2022-11-14T14:12:07;39.53;;;19.00;;
4971;SDS011;2501;51.214;6.768;2022-11-14T14:14:57;31.00;;;18.67;;
4971;SDS011;2501;51.214;6.768;2022-11-14T14:17:43;34.58;;;18.50;;
4971;SDS011;2501;51.214;6.768;2022-11-14T14:20:21;30.52;;;17.45;;
4971;SDS011;2501;51.214;6.768;2022-11-14T14:23:00;32.78;;;17.15;;
4971;SDS011;2501;51.214;6.768;2022-11-14T14:25:38;29.90;;;17.50;;
4971;SDS011;2501;51.214;6.768;2022-11-14T14:28:13;27.90;;;16.42;;
4971;SDS011;2501;51.214;6.768;2022-11-14T14:31:08;29.55;;;17.65;;
4971;SDS011;2501;51.214;6.768;2022-11-14T14:33:41;36.53;;;17.73;;
4971;SDS011;2501;51.214;6.768;2022-11-14T14:36:19;28.30;;;15.80;;
4971;SDS011;2501;51.214;6.768;2022-11-14T14:38:49;31.27;;;16.95;;
4971;SDS011;2501;51.214;6.768;2022-11-14T14:41:18;27.48;;;16.08;;
4971;SDS011;2501;51.214;6.768;2022-11-14T14:43:52;33.47;;;17.60;;
4971;SDS011;2501;51.214;6.768;2022-11-14T14:46:28;29.07;;;17.13;;
4971;SDS011;2501;51.214;6.768;2022-11-14T14:49:01;31.38;;;18.40;;
4971;SDS011;2501;51.214;6.768;2022-11-14T14:51:31;27.70;;;16.92;;
4971;SDS011;2501;51.214;6.768;2022-11-14T14:54:02;30.55;;;16.52;;
4971;SDS011;2501;51.214;6.768;2022-11-14T14:56:31;31.80;;;18.50;;
4971;SDS011;2501;51.214;6.768;2022-11-14T14:59:14;25.95;;;16.42;;
4971;SDS011;2501;51.214;6.768;2022-11-14T15:01:44;31.00;;;17.83;;
4971;SDS011;2501;51.214;6.768;2022-11-14T15:04:15;30.07;;;18.20;;
4971;SDS011;2501;51.214;6.768;2022-11-14T15:06:45;29.70;;;17.73;;
4971;SDS011;2501;51.214;6.768;2022-11-14T15:09:16;34.50;;;17.60;;
4971;SDS011;2501;51.214;6.768;2022-11-14T15:11:48;28.20;;;18.20;;
4971;SDS011;2501;51.214;6.768;2022-11-14T15:14:19;30.13;;;17.10;;
4971;SDS011;2501;51.214;6.768;2022-11-14T15:16:50;29.75;;;17.55;;
4971;SDS011;2501;51.214;6.768;2022-11-14T15:19:23;29.02;;;17.17;;
4971;SDS011;2501;51.214;6.768;2022-11-14T15:22:02;26.95;;;16.40;;
4971;SDS011;2501;51.214;6.768;2022-11-14T15:24:34;35.83;;;17.90;;
4971;SDS011;2501;51.214;6.768;2022-11-14T15:27:04;31.70;;;17.17;;
4971;SDS011;2501;51.214;6.768;2022-11-14T15:29:32;31.10;;;17.10;;
4971;SDS011;2501;51.214;6.768;2022-11-14T15:32:01;33.30;;;17.73;;
4971;SDS011;2501;51.214;6.768;2022-11-14T15:34:35;29.42;;;17.35;;
4971;SDS011;2501;51.214;6.768;2022-11-14T15:37:18;32.85;;;18.17;;
4971;SDS011;2501;51.214;6.768;2022-11-14T15:39:49;29.05;;;16.70;;
4971;SDS011;2501;51.214;6.768;2022-11-14T15:42:19;29.40;;;17.30;;
4971;SDS011;2501;51.214;6.768;2022-11-14T15:44:54;30.45;;;18.20;;